Midnight Coast — YJWE5 — position and weather

sailwx.info

Track history (hours):
 
Tides and Currents Weather Stations Pressure Air Temp Water Temp Dewpoint Dewpoint Depression Visibility Wind Speed Wind Dir Waves Ship Positions

Midnight Coast

Last reported at 2018-Jun-22 12:13 UTC. Time now 2018-Jun-25 19:42 UTC.
Position N 17°55' W 063°34'.

Length 53 m; draft 3 m.

Type: Cargo ship. MMSI: 577369000.

Date/timePositionNaut miles runAvg speedWind from/ knotsBaromVisibWave heightAir tempDewpointWater temp
2018-Jun-22 12:13N 17°55' W 063°34'3 9.2
2018-Jun-22 11:52N 17°54' W 063°31'4 9.4
2018-Jun-22 11:28N 17°52' W 063°28'4 9.1
2018-Jun-22 11:00N 17°50' W 063°23'5 9.1
2018-Jun-22 10:29N 17°48' W 063°19'4 9.3
2018-Jun-22 10:00N 17°46' W 063°15'5 9.5
2018-Jun-22 09:30N 17°44' W 063°10'5 9.5
2018-Jun-22 08:59N 17°42' W 063°06'5 9.3
2018-Jun-22 08:29N 17°40' W 063°01'39 2.2
2018-Jun-21 14:37N 17°07' W 062°40'1 8.6
2018-Jun-21 14:30N 17°08' W 062°40'5 9.1
2018-Jun-21 14:00N 17°11' W 062°44'18 9.1
2018-Jun-21 12:02N 17°24' W 062°56'1 8.4
2018-Jun-21 11:58N 17°25' W 062°57'5 8.0
2018-Jun-21 11:22N 17°29' W 062°60'0 0.6
2018-Jun-21 10:58N 17°29' W 062°59'1 1.1
2018-Jun-21 10:14N 17°29' W 063°00'0 0.2
2018-Jun-21 09:59N 17°29' W 063°00'0 0.3
2018-Jun-21 09:30N 17°28' W 063°00'0 0.3
2018-Jun-21 08:45N 17°29' W 063°00'3 4.4
2018-Jun-21 08:06N 17°30' W 063°03'1 6.2
2018-Jun-21 07:54N 17°31' W 063°04'5 5.8
2018-Jun-21 07:04N 17°33' W 063°09'2 7.2
2018-Jun-21 06:44N 17°34' W 063°11'2 7.1
2018-Jun-21 06:28N 17°34' W 063°13'4 7.3
2018-Jun-21 05:57N 17°36' W 063°16'4 8.4
2018-Jun-21 05:27N 17°39' W 063°19'4 8.1
2018-Jun-21 04:56N 17°42' W 063°23'7 8.2
2018-Jun-21 04:06N 17°46' W 063°28'3 7.7
2018-Jun-21 03:40N 17°48' W 063°31'74 7.9
2018-Jun-20 18:19N 18°14' W 064°44'3 8.5
2018-Jun-20 17:58N 18°15' W 064°47'4 8.5
2018-Jun-20 17:30N 18°16' W 064°51'3 0.6
2018-Jun-20 12:11N 18°18' W 064°54'2 9.0
2018-Jun-20 12:00N 18°17' W 064°53'83 9.1
2018-Jun-20 02:55N 17°48' W 063°31'4 8.9
2018-Jun-20 02:26N 17°46' W 063°27'4 9.0
2018-Jun-20 02:00N 17°45' W 063°23'5 8.9
2018-Jun-20 01:29N 17°43' W 063°19'4 8.6
2018-Jun-20 01:00N 17°42' W 063°15'6 8.6
2018-Jun-20 00:19N 17°38' W 063°10'31 5.3
2018-Jun-19 18:23N 17°17' W 062°46'13 8.1
2018-Jun-19 16:47N 17°25' W 062°57'3 8.5
2018-Jun-19 16:28N 17°27' W 062°59'4 7.9
2018-Jun-19 16:00N 17°29' W 063°01'5 7.8
2018-Jun-19 15:25N 17°33' W 063°04'3 7.9
2018-Jun-19 15:00N 17°35' W 063°07'4 7.7
2018-Jun-19 14:29N 17°38' W 063°09'4 7.7
2018-Jun-19 13:58N 17°41' W 063°12'4 8.3
2018-Jun-19 13:28N 17°42' W 063°17'4 8.4
2018-Jun-19 12:57N 17°44' W 063°21'4 8.3
2018-Jun-19 12:30N 17°45' W 063°25'81 8.2
2018-Jun-19 02:37N 18°14' W 064°44'1 8.5
2018-Jun-19 02:29N 18°14' W 064°45'4 8.5
2018-Jun-19 02:00N 18°16' W 064°49'4 8.6
2018-Jun-19 01:30N 18°17' W 064°53'10 0.7
2018-Jun-18 11:00N 18°17' W 064°43'4 8.2
2018-Jun-18 10:28N 18°17' W 064°48'4 8.5
2018-Jun-18 10:00N 18°17' W 064°52'  
2018-Jun-15 07:57N 18°11' W 063°31'4 9.5
2018-Jun-15 07:29N 18°10' W 063°26'5 9.6
2018-Jun-15 07:00N 18°09' W 063°22'5 9.2
2018-Jun-15 06:25N 18°07' W 063°16'4 9.3
2018-Jun-15 05:59N 18°07' W 063°12'5 9.4
2018-Jun-15 05:28N 18°05' W 063°07'1 2.8
2018-Jun-15 04:56N 18°05' W 063°06'0 0.0
2018-Jun-15 04:30N 18°05' W 063°06'0 0.0
2018-Jun-15 04:00N 18°05' W 063°06'0 0.0
2018-Jun-15 03:30N 18°05' W 063°06'0 0.0
2018-Jun-15 03:00N 18°05' W 063°06'0 0.0
2018-Jun-15 02:30N 18°05' W 063°06'0 0.0
2018-Jun-15 01:55N 18°05' W 063°06'0 0.0
2018-Jun-15 01:27N 18°05' W 063°06'0 0.0
2018-Jun-15 00:58N 18°05' W 063°06'0 0.0
2018-Jun-15 00:28N 18°05' W 063°06'0 0.0
2018-Jun-15 00:00N 18°05' W 063°06'0 0.0
2018-Jun-14 23:29N 18°05' W 063°06'3 6.5
2018-Jun-14 22:59N 18°05' W 063°09'3 7.0
2018-Jun-14 22:30N 18°01' W 063°09'5 9.3
2018-Jun-14 21:59N 17°57' W 063°08'5 9.1
2018-Jun-14 21:27N 17°52' W 063°06'4 9.0
2018-Jun-14 21:00N 17°49' W 063°04'5 9.0
2018-Jun-14 20:28N 17°44' W 063°02'5 9.3
2018-Jun-14 19:54N 17°39' W 063°00'8 8.9
2018-Jun-14 18:57N 17°32' W 062°57'19 1.2
2018-Jun-14 03:16N 17°17' W 062°45'13 8.8
2018-Jun-14 01:48N 17°24' W 062°56'3 8.4
2018-Jun-14 01:28N 17°26' W 062°58'3 4.9
2018-Jun-14 00:56N 17°29' W 062°59'0 0.0
2018-Jun-14 00:30N 17°29' W 062°59'0 0.0
2018-Jun-14 00:00N 17°29' W 062°59'6 4.4
2018-Jun-13 22:33N 17°32' W 063°05'1 8.1
2018-Jun-13 22:28N 17°32' W 063°06'7 8.0
2018-Jun-13 21:35N 17°35' W 063°12'1 8.0
2018-Jun-13 21:28N 17°36' W 063°13'2 1.5
2018-Jun-13 19:56N 17°37' W 063°15'1 3.3
2018-Jun-13 19:30N 17°38' W 063°16'5 9.0
2018-Jun-13 18:57N 17°43' W 063°15'4 8.4
2018-Jun-13 18:30N 17°46' W 063°14'5 8.3
2018-Jun-13 17:56N 17°51' W 063°13'4 8.7
2018-Jun-13 17:30N 17°55' W 063°12'4 8.6
2018-Jun-13 16:59N 17°59' W 063°11'4 8.7
2018-Jun-13 16:30N 18°03' W 063°10'4 7.7
2018-Jun-13 16:00N 18°05' W 063°07'1 2.8
2018-Jun-13 15:30N 18°05' W 063°05'0 0.0
2018-Jun-13 15:00N 18°05' W 063°05'2 5.0
2018-Jun-13 14:30N 18°06' W 063°07'5 8.4
2018-Jun-13 13:58N 18°09' W 063°11'6 2.8
2018-Jun-13 11:54N 18°12' W 063°06'5 7.6
2018-Jun-13 11:13N 18°12' W 063°11'2 8.8
2018-Jun-13 11:00N 18°12' W 063°13'5 8.5
2018-Jun-13 10:28N 18°12' W 063°18'  
Track history (hours):
 
Tides and Currents Weather Stations Pressure Air Temp Water Temp Dewpoint Dewpoint Depression Visibility Wind Speed Wind Dir Waves Ship Positions

Midnight Coast

Last reported at 2018-Jun-22 12:13 UTC. Time now 2018-Jun-25 19:42 UTC.
Position N 17°55' W 063°34'.

Length 53 m; draft 3 m.

Type: Cargo ship. MMSI: 577369000.

Date/timePositionNaut miles runAvg speedWind from/ knotsBaromVisibWave heightAir tempDewpointWater temp
2018-Jun-22 12:13N 17°55' W 063°34'3 9.2
2018-Jun-22 11:52N 17°54' W 063°31'4 9.4
2018-Jun-22 11:28N 17°52' W 063°28'4 9.1
2018-Jun-22 11:00N 17°50' W 063°23'5 9.1
2018-Jun-22 10:29N 17°48' W 063°19'4 9.3
2018-Jun-22 10:00N 17°46' W 063°15'5 9.5
2018-Jun-22 09:30N 17°44' W 063°10'5 9.5
2018-Jun-22 08:59N 17°42' W 063°06'5 9.3
2018-Jun-22 08:29N 17°40' W 063°01'39 2.2
2018-Jun-21 14:37N 17°07' W 062°40'1 8.6
2018-Jun-21 14:30N 17°08' W 062°40'5 9.1
2018-Jun-21 14:00N 17°11' W 062°44'18 9.1
2018-Jun-21 12:02N 17°24' W 062°56'1 8.4
2018-Jun-21 11:58N 17°25' W 062°57'5 8.0
2018-Jun-21 11:22N 17°29' W 062°60'0 0.6
2018-Jun-21 10:58N 17°29' W 062°59'1 1.1
2018-Jun-21 10:14N 17°29' W 063°00'0 0.2
2018-Jun-21 09:59N 17°29' W 063°00'0 0.3
2018-Jun-21 09:30N 17°28' W 063°00'0 0.3
2018-Jun-21 08:45N 17°29' W 063°00'3 4.4
2018-Jun-21 08:06N 17°30' W 063°03'1 6.2
2018-Jun-21 07:54N 17°31' W 063°04'5 5.8
2018-Jun-21 07:04N 17°33' W 063°09'2 7.2
2018-Jun-21 06:44N 17°34' W 063°11'2 7.1
2018-Jun-21 06:28N 17°34' W 063°13'4 7.3
2018-Jun-21 05:57N 17°36' W 063°16'4 8.4
2018-Jun-21 05:27N 17°39' W 063°19'4 8.1
2018-Jun-21 04:56N 17°42' W 063°23'7 8.2
2018-Jun-21 04:06N 17°46' W 063°28'3 7.7
2018-Jun-21 03:40N 17°48' W 063°31'74 7.9
2018-Jun-20 18:19N 18°14' W 064°44'3 8.5
2018-Jun-20 17:58N 18°15' W 064°47'4 8.5
2018-Jun-20 17:30N 18°16' W 064°51'3 0.6
2018-Jun-20 12:11N 18°18' W 064°54'2 9.0
2018-Jun-20 12:00N 18°17' W 064°53'83 9.1
2018-Jun-20 02:55N 17°48' W 063°31'4 8.9
2018-Jun-20 02:26N 17°46' W 063°27'4 9.0
2018-Jun-20 02:00N 17°45' W 063°23'5 8.9
2018-Jun-20 01:29N 17°43' W 063°19'4 8.6
2018-Jun-20 01:00N 17°42' W 063°15'6 8.6
2018-Jun-20 00:19N 17°38' W 063°10'31 5.3
2018-Jun-19 18:23N 17°17' W 062°46'13 8.1
2018-Jun-19 16:47N 17°25' W 062°57'3 8.5
2018-Jun-19 16:28N 17°27' W 062°59'4 7.9
2018-Jun-19 16:00N 17°29' W 063°01'5 7.8
2018-Jun-19 15:25N 17°33' W 063°04'3 7.9
2018-Jun-19 15:00N 17°35' W 063°07'4 7.7
2018-Jun-19 14:29N 17°38' W 063°09'4 7.7
2018-Jun-19 13:58N 17°41' W 063°12'4 8.3
2018-Jun-19 13:28N 17°42' W 063°17'4 8.4
2018-Jun-19 12:57N 17°44' W 063°21'4 8.3
2018-Jun-19 12:30N 17°45' W 063°25'81 8.2
2018-Jun-19 02:37N 18°14' W 064°44'1 8.5
2018-Jun-19 02:29N 18°14' W 064°45'4 8.5
2018-Jun-19 02:00N 18°16' W 064°49'4 8.6
2018-Jun-19 01:30N 18°17' W 064°53'10 0.7
2018-Jun-18 11:00N 18°17' W 064°43'4 8.2
2018-Jun-18 10:28N 18°17' W 064°48'4 8.5
2018-Jun-18 10:00N 18°17' W 064°52'  
2018-Jun-15 07:57N 18°11' W 063°31'4 9.5
2018-Jun-15 07:29N 18°10' W 063°26'5 9.6
2018-Jun-15 07:00N 18°09' W 063°22'5 9.2
2018-Jun-15 06:25N 18°07' W 063°16'4 9.3
2018-Jun-15 05:59N 18°07' W 063°12'5 9.4
2018-Jun-15 05:28N 18°05' W 063°07'1 2.8
2018-Jun-15 04:56N 18°05' W 063°06'0 0.0
2018-Jun-15 04:30N 18°05' W 063°06'0 0.0
2018-Jun-15 04:00N 18°05' W 063°06'0 0.0
2018-Jun-15 03:30N 18°05' W 063°06'0 0.0
2018-Jun-15 03:00N 18°05' W 063°06'0 0.0
2018-Jun-15 02:30N 18°05' W 063°06'0 0.0
2018-Jun-15 01:55N 18°05' W 063°06'0 0.0
2018-Jun-15 01:27N 18°05' W 063°06'0 0.0
2018-Jun-15 00:58N 18°05' W 063°06'0 0.0
2018-Jun-15 00:28N 18°05' W 063°06'0 0.0
2018-Jun-15 00:00N 18°05' W 063°06'0 0.0
2018-Jun-14 23:29N 18°05' W 063°06'3 6.5
2018-Jun-14 22:59N 18°05' W 063°09'3 7.0
2018-Jun-14 22:30N 18°01' W 063°09'5 9.3
2018-Jun-14 21:59N 17°57' W 063°08'5 9.1
2018-Jun-14 21:27N 17°52' W 063°06'4 9.0
2018-Jun-14 21:00N 17°49' W 063°04'5 9.0
2018-Jun-14 20:28N 17°44' W 063°02'5 9.3
2018-Jun-14 19:54N 17°39' W 063°00'8 8.9
2018-Jun-14 18:57N 17°32' W 062°57'19 1.2
2018-Jun-14 03:16N 17°17' W 062°45'13 8.8
2018-Jun-14 01:48N 17°24' W 062°56'3 8.4
2018-Jun-14 01:28N 17°26' W 062°58'3 4.9
2018-Jun-14 00:56N 17°29' W 062°59'0 0.0
2018-Jun-14 00:30N 17°29' W 062°59'0 0.0
2018-Jun-14 00:00N 17°29' W 062°59'6 4.4
2018-Jun-13 22:33N 17°32' W 063°05'1 8.1
2018-Jun-13 22:28N 17°32' W 063°06'7 8.0
2018-Jun-13 21:35N 17°35' W 063°12'1 8.0
2018-Jun-13 21:28N 17°36' W 063°13'2 1.5
2018-Jun-13 19:56N 17°37' W 063°15'1 3.3
2018-Jun-13 19:30N 17°38' W 063°16'5 9.0
2018-Jun-13 18:57N 17°43' W 063°15'4 8.4
2018-Jun-13 18:30N 17°46' W 063°14'5 8.3
2018-Jun-13 17:56N 17°51' W 063°13'4 8.7
2018-Jun-13 17:30N 17°55' W 063°12'4 8.6
2018-Jun-13 16:59N 17°59' W 063°11'4 8.7
2018-Jun-13 16:30N 18°03' W 063°10'4 7.7
2018-Jun-13 16:00N 18°05' W 063°07'1 2.8
2018-Jun-13 15:30N 18°05' W 063°05'0 0.0
2018-Jun-13 15:00N 18°05' W 063°05'2 5.0
2018-Jun-13 14:30N 18°06' W 063°07'5 8.4
2018-Jun-13 13:58N 18°09' W 063°11'6 2.8
2018-Jun-13 11:54N 18°12' W 063°06'5 7.6
2018-Jun-13 11:13N 18°12' W 063°11'2 8.8
2018-Jun-13 11:00N 18°12' W 063°13'5 8.5
2018-Jun-13 10:28N 18°12' W 063°18'  

Dump ship's entire track history